createdAt,value
2023-04-22T00:02:19.608Z,100710.48
2023-04-22T00:05:47.318Z,100703.02
2023-04-22T00:09:14.366Z,100701.14
2023-04-22T00:12:41.505Z,100693.71
2023-04-22T00:16:09.623Z,100693.24
2023-04-22T00:19:37.536Z,100689.77
2023-04-22T00:23:04.688Z,100689.98
2023-04-22T00:26:31.683Z,100688.94
2023-04-22T00:29:58.625Z,100685.84
2023-04-22T00:33:25.651Z,100684.68
2023-04-22T00:36:53.058Z,100686.09
2023-04-22T00:40:20.156Z,100687.16
2023-04-22T00:43:47.228Z,100684.05
2023-04-22T00:47:15.049Z,100685.29
2023-04-22T00:50:42.281Z,100684.42
2023-04-22T00:54:09.722Z,100686.16
2023-04-22T00:57:37.252Z,100690.13
2023-04-22T01:01:04.659Z,100691.70
2023-04-22T01:04:32.489Z,100691.00
2023-04-22T01:07:59.500Z,100691.02
2023-04-22T01:11:26.449Z,100691.55
2023-04-22T01:14:53.450Z,100688.73
2023-04-22T01:18:20.568Z,100691.89
2023-04-22T01:21:48.336Z,100695.04
2023-04-22T01:25:15.524Z,100696.94
2023-04-22T01:28:42.920Z,100698.84
2023-04-22T01:32:10.123Z,100697.55
2023-04-22T01:35:37.848Z,100698.02
2023-04-22T01:39:05.054Z,100693.45
2023-04-22T01:42:33.323Z,100690.60
2023-04-22T01:46:01.628Z,100687.95
2023-04-22T01:49:28.655Z,100684.30
2023-04-22T01:52:55.800Z,100688.52
2023-04-22T01:56:22.839Z,100686.41
2023-04-22T01:59:49.930Z,100690.01
2023-04-22T02:03:16.962Z,100688.08
2023-04-22T02:06:44.104Z,100682.72
2023-04-22T02:10:13.181Z,100679.09
2023-04-22T02:13:41.886Z,100676.83
2023-04-22T02:17:09.103Z,100677.71
2023-04-22T02:20:36.298Z,100676.31
2023-04-22T02:24:03.310Z,100675.46
2023-04-22T02:27:30.197Z,100676.66
2023-04-22T02:30:57.607Z,100671.33
2023-04-22T02:34:24.686Z,100668.73
2023-04-22T02:37:51.548Z,100671.52
2023-04-22T02:41:18.705Z,100668.44
2023-04-22T02:44:45.572Z,100666.05
2023-04-22T02:48:13.256Z,100667.11
2023-04-22T02:51:41.264Z,100665.57
2023-04-22T02:55:10.089Z,100665.95
2023-04-22T02:58:37.140Z,100664.61
2023-04-22T03:02:06.647Z,100659.83
2023-04-22T03:06:00.853Z,100659.96
2023-04-22T03:09:28.069Z,100661.44
2023-04-22T03:12:55.155Z,100661.19
2023-04-22T03:16:25.739Z,100660.70
2023-04-22T03:19:53.767Z,100655.38
2023-04-22T03:23:21.449Z,100654.58
2023-04-22T03:26:48.571Z,100654.77
2023-04-22T03:30:16.296Z,100652.17
2023-04-22T03:33:43.349Z,100650.98
2023-04-22T03:37:17.840Z,100647.96
2023-04-22T03:40:45.246Z,100646.08
2023-04-22T03:44:19.218Z,100649.30
2023-04-22T03:47:46.892Z,100645.95
2023-04-22T03:51:21.094Z,100643.27
2023-04-22T03:54:48.160Z,100647.58
2023-04-22T03:58:15.812Z,100648.56
2023-04-22T04:01:43.202Z,100645.33
2023-04-22T04:05:12.157Z,100644.06
2023-04-22T04:08:39.723Z,100646.30
2023-04-22T04:12:07.357Z,100645.46
2023-04-22T04:15:37.765Z,100643.13
2023-04-22T04:19:06.534Z,100642.98
2023-04-22T04:22:35.323Z,100639.34
2023-04-22T04:26:05.777Z,100637.92
2023-04-22T04:29:35.877Z,100637.23
2023-04-22T04:33:12.345Z,100635.17
2023-04-22T04:36:40.032Z,100635.75
2023-04-22T04:40:15.964Z,100632.70
2023-04-22T04:43:47.735Z,100632.09
2023-04-22T04:47:23.177Z,100634.94
2023-04-22T04:50:53.701Z,100634.80
2023-04-22T04:54:21.406Z,100632.85
2023-04-22T04:57:49.173Z,100632.80
2023-04-22T05:01:16.517Z,100629.25
2023-04-22T05:04:44.115Z,100625.95
2023-04-22T05:08:11.799Z,100625.89
2023-04-22T05:11:39.669Z,100630.45
2023-04-22T05:15:13.849Z,100626.41
2023-04-22T05:18:41.980Z,100625.73
2023-04-22T05:22:10.170Z,100620.58
2023-04-22T05:25:37.109Z,100619.44
2023-04-22T05:29:08.286Z,100615.97
2023-04-22T05:32:35.426Z,100621.98
2023-04-22T05:36:02.613Z,100617.92
2023-04-22T05:39:30.011Z,100620.91
2023-04-22T05:42:59.639Z,100617.39
2023-04-22T05:46:27.280Z,100618.59
2023-04-22T05:49:55.104Z,100615.48
2023-04-22T05:53:37.551Z,100614.34
2023-04-22T05:57:05.850Z,100619.73
2023-04-22T06:00:33.797Z,100622.61
2023-04-22T06:04:11.950Z,100624.80
2023-04-22T06:07:38.431Z,100628.63
2023-04-22T06:11:06.303Z,100626.98
2023-04-22T06:14:35.177Z,100628.29
2023-04-22T06:18:02.551Z,100623.63
2023-04-22T06:21:29.871Z,100620.38
2023-04-22T06:24:57.027Z,100618.67
2023-04-22T06:28:23.910Z,100616.84
2023-04-22T06:31:54.914Z,100610.23
2023-04-22T06:35:23.770Z,100609.48
2023-04-22T06:38:51.236Z,100609.27
2023-04-22T06:42:37.450Z,100608.74
2023-04-22T06:46:30.960Z,100609.64
2023-04-22T06:50:16.708Z,100608.82
2023-04-22T06:53:51.631Z,100610.06
2023-04-22T06:57:18.641Z,100603.66
2023-04-22T07:00:45.580Z,100605.48
2023-04-22T07:04:13.479Z,100602.80
2023-04-22T07:07:41.176Z,100603.88
2023-04-22T07:11:10.664Z,100601.52
2023-04-22T07:14:50.244Z,100593.00
2023-04-22T07:18:17.485Z,100594.00
2023-04-22T07:21:44.450Z,100590.48
2023-04-22T07:25:13.011Z,100590.55
2023-04-22T07:28:40.027Z,100588.54
2023-04-22T07:32:07.205Z,100597.21
2023-04-22T07:35:34.477Z,100594.52
2023-04-22T07:39:01.814Z,100593.58
2023-04-22T07:42:28.958Z,100595.34
2023-04-22T07:45:55.958Z,100592.89
2023-04-22T07:49:24.092Z,100590.15
2023-04-22T07:52:51.112Z,100586.98
2023-04-22T07:56:18.032Z,100586.23
2023-04-22T07:59:44.992Z,100589.96
2023-04-22T08:03:12.386Z,100590.81
2023-04-22T08:06:39.562Z,100588.56
2023-04-22T08:10:08.850Z,100590.41
2023-04-22T08:13:35.916Z,100586.95
2023-04-22T08:17:03.025Z,100586.23
2023-04-22T08:20:30.484Z,100586.57
2023-04-22T08:23:57.411Z,100584.94
2023-04-22T08:27:25.216Z,100581.57
2023-04-22T08:30:52.306Z,100580.36
2023-04-22T08:34:19.240Z,100577.33
2023-04-22T08:37:46.365Z,100577.16
2023-04-22T08:41:13.888Z,100574.08
2023-04-22T08:44:42.467Z,100570.29
2023-04-22T08:48:11.363Z,100567.53
2023-04-22T08:51:39.213Z,100562.63
2023-04-22T08:55:07.436Z,100564.42
2023-04-22T08:58:35.559Z,100567.85
2023-04-22T09:02:03.859Z,100563.53
2023-04-22T09:05:33.949Z,100560.05
2023-04-22T09:09:01.417Z,100560.36
2023-04-22T09:12:29.237Z,100560.63
2023-04-22T09:15:58.637Z,100561.51
2023-04-22T09:19:27.841Z,100560.56
2023-04-22T09:22:56.877Z,100554.95
2023-04-22T09:26:24.725Z,100556.05
2023-04-22T09:29:52.768Z,100552.38
2023-04-22T09:33:19.657Z,100548.23
2023-04-22T09:36:47.334Z,100546.47
2023-04-22T09:40:19.516Z,100539.55
2023-04-22T09:43:46.914Z,100535.58
2023-04-22T09:47:14.154Z,100532.40
2023-04-22T09:50:44.322Z,100532.27
2023-04-22T09:54:12.581Z,100527.68
2023-04-22T09:57:42.000Z,100524.98
2023-04-22T10:01:09.648Z,100520.36
2023-04-22T10:04:37.520Z,100517.22
2023-04-22T10:08:05.153Z,100520.33
2023-04-22T10:11:32.942Z,100520.13
2023-04-22T10:14:59.751Z,100519.55
2023-04-22T10:18:28.429Z,100520.97
2023-04-22T10:21:59.062Z,100517.42
2023-04-22T10:25:27.505Z,100512.73
2023-04-22T10:28:55.027Z,100507.65
2023-04-22T10:32:28.950Z,100503.80
2023-04-22T10:36:11.687Z,100499.95
2023-04-22T10:39:39.466Z,100502.67
2023-04-22T10:43:06.724Z,100496.16
2023-04-22T10:47:01.420Z,100492.86
2023-04-22T10:50:33.440Z,100491.16
2023-04-22T10:54:02.426Z,100490.67
2023-04-22T10:57:37.647Z,100487.44
2023-04-22T11:01:17.373Z,100484.19
2023-04-22T11:04:44.638Z,100474.97
2023-04-22T11:08:21.465Z,100467.09
2023-04-22T11:11:48.439Z,100464.82
2023-04-22T11:15:17.601Z,100461.64
2023-04-22T11:18:47.814Z,100454.06
2023-04-22T11:22:15.370Z,100449.12
2023-04-22T11:25:42.232Z,100441.90
2023-04-22T11:29:09.716Z,100436.24
2023-04-22T11:32:38.974Z,100435.55
2023-04-22T11:36:05.060Z,100430.90
2023-04-22T11:39:50.248Z,100427.27
2023-04-22T11:43:26.027Z,100425.35
2023-04-22T11:46:52.809Z,100424.33
2023-04-22T11:50:22.148Z,100417.77
2023-04-22T11:53:53.981Z,100416.52
2023-04-22T11:57:21.996Z,100409.86
2023-04-22T12:00:51.107Z,100406.89
2023-04-22T12:04:18.049Z,100404.33
2023-04-22T12:07:45.488Z,100403.86
2023-04-22T12:11:13.326Z,100397.89
2023-04-22T12:14:40.332Z,100397.46
2023-04-22T12:18:08.340Z,100398.84
2023-04-22T12:21:36.308Z,100395.55
2023-04-22T12:25:03.595Z,100394.05
2023-04-22T12:28:30.627Z,100389.15
2023-04-22T12:31:57.587Z,100385.11
2023-04-22T12:35:24.551Z,100375.55
2023-04-22T12:38:52.095Z,100375.73
2023-04-22T12:42:19.008Z,100374.14
2023-04-22T12:45:46.002Z,100372.70
2023-04-22T12:49:14.431Z,100368.20
2023-04-22T12:52:41.385Z,100369.44
2023-04-22T12:56:08.944Z,100364.26
2023-04-22T12:59:35.805Z,100356.35
2023-04-22T13:03:02.917Z,100349.75
2023-04-22T13:06:31.345Z,100347.41
2023-04-22T13:09:58.320Z,100347.02
2023-04-22T13:13:25.491Z,100347.96
2023-04-22T13:16:53.084Z,100339.09
2023-04-22T13:20:20.185Z,100335.01
2023-04-22T13:23:47.012Z,100331.98
2023-04-22T13:27:14.692Z,100327.90
2023-04-22T13:30:41.715Z,100321.29
2023-04-22T13:34:08.921Z,100319.36
2023-04-22T13:37:36.135Z,100321.08
2023-04-22T13:41:03.554Z,100317.21
2023-04-22T13:44:30.734Z,100313.77
2023-04-22T13:47:57.849Z,100312.73
2023-04-22T13:51:25.231Z,100314.41
2023-04-22T13:54:52.014Z,100308.02
2023-04-22T13:58:19.021Z,100302.09
2023-04-22T14:01:45.855Z,100299.01
2023-04-22T14:05:13.323Z,100297.00
2023-04-22T14:08:40.784Z,100295.36
2023-04-22T14:12:09.093Z,100294.39
2023-04-22T14:15:36.292Z,100289.64
2023-04-22T14:19:04.379Z,100286.10
2023-04-22T14:22:33.196Z,100282.83
2023-04-22T14:26:00.432Z,100280.68
2023-04-22T14:29:29.992Z,100280.38
2023-04-22T14:32:55.625Z,100277.65
2023-04-22T14:36:22.735Z,100276.60
2023-04-22T14:39:49.581Z,100274.13
2023-04-22T14:43:17.783Z,100266.11
2023-04-22T14:46:45.311Z,100267.09
2023-04-22T14:50:13.703Z,100263.17
2023-04-22T14:53:41.018Z,100266.02
2023-04-22T14:57:08.298Z,100263.84
2023-04-22T15:00:35.372Z,100259.52
2023-04-22T15:04:02.477Z,100259.31
2023-04-22T15:07:29.738Z,100253.80
2023-04-22T15:10:56.978Z,100255.05
2023-04-22T15:14:23.914Z,100257.73
2023-04-22T15:17:51.103Z,100254.15
2023-04-22T15:21:18.165Z,100250.73
2023-04-22T15:24:45.157Z,100247.70
2023-04-22T15:28:12.258Z,100246.95
2023-04-22T15:31:39.576Z,100240.36
2023-04-22T15:35:07.391Z,100240.34
2023-04-22T15:38:34.522Z,100239.66
2023-04-22T15:42:01.956Z,100242.82
2023-04-22T15:45:29.071Z,100238.91
2023-04-22T15:48:57.469Z,100240.05
2023-04-22T15:52:24.788Z,100236.48
2023-04-22T15:55:51.672Z,100234.70
2023-04-22T15:59:18.656Z,100234.98
2023-04-22T16:02:46.643Z,100234.88
2023-04-22T16:06:13.829Z,100227.99
2023-04-22T16:09:41.202Z,100224.83
2023-04-22T16:13:09.019Z,100222.77
2023-04-22T16:16:36.204Z,100223.09
2023-04-22T16:20:03.782Z,100220.89
2023-04-22T16:23:30.980Z,100217.50
2023-04-22T16:26:58.377Z,100216.55
2023-04-22T16:30:25.997Z,100213.49
2023-04-22T16:33:53.260Z,100211.00
2023-04-22T16:37:20.098Z,100207.49
2023-04-22T16:40:47.211Z,100204.20
2023-04-22T16:44:14.359Z,100200.13
2023-04-22T16:47:44.673Z,100200.29
2023-04-22T16:51:16.380Z,100197.52
2023-04-22T16:54:56.335Z,100193.11
2023-04-22T16:58:32.688Z,100191.51
2023-04-22T17:02:03.180Z,100192.04
2023-04-22T17:05:33.072Z,100184.52
2023-04-22T17:09:11.410Z,100184.63
2023-04-22T17:12:40.926Z,100179.72
2023-04-22T17:16:11.400Z,100178.67
2023-04-22T17:19:40.506Z,100173.34
2023-04-22T17:23:10.249Z,100170.33
2023-04-22T17:26:41.831Z,100169.79
2023-04-22T17:30:14.929Z,100171.27
2023-04-22T17:33:51.554Z,100172.73
2023-04-22T17:37:21.142Z,100168.89
2023-04-22T17:40:51.238Z,100166.13
2023-04-22T17:44:21.042Z,100167.50
2023-04-22T17:47:54.618Z,100173.84
2023-04-22T17:51:27.611Z,100174.73
2023-04-22T17:54:59.921Z,100171.07
2023-04-22T17:58:30.259Z,100172.89
2023-04-22T18:02:01.704Z,100174.66
2023-04-22T18:05:33.773Z,100179.05
2023-04-22T18:09:07.391Z,100181.13
2023-04-22T18:12:36.954Z,100183.20
2023-04-22T18:16:07.972Z,100181.52
2023-04-22T18:19:37.000Z,100184.21
2023-04-22T18:23:05.434Z,100182.64
2023-04-22T18:26:33.537Z,100186.00
2023-04-22T18:30:02.745Z,100187.91
2023-04-22T18:33:34.877Z,100191.41
2023-04-22T18:37:03.805Z,100191.21
2023-04-22T18:40:35.497Z,100196.09
2023-04-22T18:44:03.745Z,100197.79
2023-04-22T18:47:40.670Z,100198.93
2023-04-22T18:51:15.078Z,100201.14
2023-04-22T18:54:45.051Z,100206.49
2023-04-22T18:58:13.922Z,100202.52
2023-04-22T19:01:43.219Z,100202.60
2023-04-22T19:05:13.676Z,100197.73
2023-04-22T19:08:44.428Z,100196.39
2023-04-22T19:12:16.595Z,100195.39
2023-04-22T19:15:47.794Z,100196.15
2023-04-22T19:19:17.284Z,100198.14
2023-04-22T19:22:48.669Z,100198.17
2023-04-22T19:26:16.124Z,100195.41
2023-04-22T19:29:43.980Z,100189.10
2023-04-22T19:33:11.455Z,100190.00
2023-04-22T19:36:38.423Z,100185.29
2023-04-22T19:40:05.813Z,100189.17
2023-04-22T19:43:32.932Z,100191.84
2023-04-22T19:47:00.031Z,100194.49
2023-04-22T19:50:27.862Z,100189.59
2023-04-22T19:53:57.390Z,100188.38
2023-04-22T19:57:25.051Z,100188.57
2023-04-22T20:00:52.849Z,100188.40
2023-04-22T20:04:21.820Z,100181.56
2023-04-22T20:07:50.679Z,100183.67
2023-04-22T20:11:18.157Z,100182.61
2023-04-22T20:14:46.188Z,100178.40
2023-04-22T20:18:14.262Z,100176.81
2023-04-22T20:21:41.609Z,100177.65
2023-04-22T20:25:12.787Z,100178.70
2023-04-22T20:28:46.674Z,100177.46
2023-04-22T20:32:14.306Z,100174.64
2023-04-22T20:35:42.137Z,100173.92
2023-04-22T20:39:12.675Z,100171.48
2023-04-22T20:42:39.553Z,100177.24
2023-04-22T20:46:06.835Z,100172.31
2023-04-22T20:49:33.800Z,100179.48
2023-04-22T20:53:01.203Z,100179.45
2023-04-22T20:56:28.287Z,100177.51
2023-04-22T20:59:55.755Z,100174.69
2023-04-22T21:03:25.951Z,100173.09
2023-04-22T21:06:54.621Z,100173.92
2023-04-22T21:10:24.036Z,100171.27
2023-04-22T21:13:52.202Z,100170.55
2023-04-22T21:17:24.019Z,100171.05
2023-04-22T21:20:54.010Z,100170.14
2023-04-22T21:24:22.786Z,100169.94
2023-04-22T21:27:51.748Z,100173.23
2023-04-22T21:31:20.026Z,100171.09
2023-04-22T21:34:47.064Z,100171.91
2023-04-22T21:38:16.319Z,100175.32
2023-04-22T21:41:43.647Z,100170.20
2023-04-22T21:45:12.373Z,100169.09
2023-04-22T21:48:39.311Z,100171.66
2023-04-22T21:52:06.258Z,100170.73
2023-04-22T21:55:33.345Z,100167.54
2023-04-22T21:59:00.604Z,100167.85
2023-04-22T22:02:28.110Z,100167.46
2023-04-22T22:05:55.179Z,100169.69
2023-04-22T22:09:22.567Z,100170.89
2023-04-22T22:12:50.721Z,100174.16
2023-04-22T22:16:18.364Z,100171.84
2023-04-22T22:19:45.632Z,100169.88
2023-04-22T22:23:12.532Z,100169.83
2023-04-22T22:26:41.223Z,100165.92
2023-04-22T22:30:10.257Z,100164.64
2023-04-22T22:33:37.020Z,100164.03
2023-04-22T22:37:04.186Z,100164.83
2023-04-22T22:40:31.173Z,100164.23
2023-04-22T22:43:58.111Z,100162.95
2023-04-22T22:47:26.032Z,100160.44
2023-04-22T22:50:52.963Z,100161.06
2023-04-22T22:54:20.514Z,100157.84
2023-04-22T22:57:47.470Z,100157.75
2023-04-22T23:01:14.574Z,100157.66
2023-04-22T23:04:43.502Z,100153.52
2023-04-22T23:08:11.029Z,100149.91
2023-04-22T23:11:37.962Z,100150.16
2023-04-22T23:15:05.106Z,100151.98
2023-04-22T23:18:33.058Z,100147.87
2023-04-22T23:22:00.202Z,100147.77
2023-04-22T23:25:28.454Z,100146.27
2023-04-22T23:28:55.908Z,100144.61
2023-04-22T23:32:22.920Z,100145.90
2023-04-22T23:35:49.999Z,100137.64
2023-04-22T23:39:17.094Z,100141.05
2023-04-22T23:42:44.009Z,100133.67
2023-04-22T23:46:11.872Z,100127.69
2023-04-22T23:49:38.931Z,100127.77
2023-04-22T23:53:05.836Z,100120.91
2023-04-22T23:56:34.008Z,100120.67
